Time;durP1;ratioP1;P1;durP2;ratioP2;P2;SDS_P1;SDS_P2;PMS_P1;PMS_P2;Temp;Humidity;BMP_temperature;BMP_pressure;BME280_temperature;BME280_humidity;BME280_pressure;Samples;Min_cycle;Max_cycle;Signal;HPM_P1;HPM_P2
2023/08/08 00:00:35;;;;;;;12.30;4.17;;;;;;;;;;5053585;28;20448;-29
2023/08/08 00:03:00;;;;;;;13.48;4.93;;;;;;;;;;5053486;28;20255;-29
2023/08/08 00:05:25;;;;;;;14.97;4.50;;;;;;;;;;5054026;28;20052;-29
2023/08/08 00:07:50;;;;;;;11.57;4.10;;;;;;;;;;5052754;28;20599;-29
2023/08/08 00:10:15;;;;;;;20.50;4.53;;;;;;;;;;5053256;28;20291;-29
2023/08/08 00:12:40;;;;;;;19.38;4.40;;;;;;;;;;5053900;28;20252;-29
2023/08/08 00:15:06;;;;;;;14.93;4.37;;;;;;;;;;5053354;28;20395;-28
2023/08/08 00:17:31;;;;;;;16.45;4.28;;;;;;;;;;5053648;28;20286;-29
2023/08/08 00:19:56;;;;;;;17.43;4.40;;;;;;;;;;5053400;28;20013;-29
2023/08/08 00:22:22;;;;;;;16.02;4.88;;;;;;;;;;5053644;28;20321;-28
2023/08/08 00:24:47;;;;;;;14.25;4.25;;;;;;;;;;5053356;28;20027;-29
2023/08/08 00:27:12;;;;;;;17.93;3.83;;;;;;;;;;5053264;28;20100;-29
2023/08/08 00:29:37;;;;;;;20.27;4.20;;;;;;;;;;5053149;28;20286;-28
2023/08/08 00:32:02;;;;;;;17.25;4.10;;;;;;;;;;5051943;28;20032;-28
2023/08/08 00:34:28;;;;;;;16.58;4.13;;;;;;;;;;5051936;28;20017;-29
2023/08/08 00:36:53;;;;;;;17.03;3.93;;;;;;;;;;5051425;28;20468;-29
2023/08/08 00:39:18;;;;;;;16.48;4.50;;;;;;;;;;5051106;28;20271;-29
2023/08/08 00:41:43;;;;;;;14.40;4.10;;;;;;;;;;5052478;28;20074;-29
2023/08/08 00:44:09;;;;;;;11.97;3.83;;;;;;;;;;5052238;28;20025;-28
2023/08/08 00:46:34;;;;;;;12.05;3.90;;;;;;;;;;5052338;28;20271;-29
2023/08/08 00:49:00;;;;;;;16.42;4.38;;;;;;;;;;5052229;28;20017;-29
2023/08/08 00:51:25;;;;;;;19.30;4.28;;;;;;;;;;5052615;28;20055;-28
2023/08/08 00:53:50;;;;;;;20.10;3.87;;;;;;;;;;5053030;28;20074;-29
2023/08/08 00:56:16;;;;;;;16.05;4.20;;;;;;;;;;5052919;28;20317;-28
2023/08/08 00:58:42;;;;;;;16.85;4.57;;;;;;;;;;5053244;28;20067;-28
2023/08/08 01:01:07;;;;;;;17.83;4.10;;;;;;;;;;5052898;28;20025;-29
2023/08/08 01:03:32;;;;;;;14.17;4.13;;;;;;;;;;5052939;28;20059;-29
2023/08/08 01:06:03;;;;;;;22.63;4.57;;;;;;;;;;5052911;28;20636;-28
2023/08/08 01:08:32;;;;;;;12.35;4.05;;;;;;;;;;5053166;28;20271;-28
2023/08/08 01:10:58;;;;;;;10.32;3.72;;;;;;;;;;5052603;28;20040;-29
2023/08/08 01:13:25;;;;;;;11.90;4.13;;;;;;;;;;5052856;28;20469;-28
2023/08/08 01:15:50;;;;;;;15.65;4.13;;;;;;;;;;5053366;28;20017;-28
2023/08/08 01:18:16;;;;;;;12.25;4.00;;;;;;;;;;5052801;28;20014;-29
2023/08/08 01:20:42;;;;;;;17.33;3.97;;;;;;;;;;5055971;28;20467;-28
2023/08/08 01:23:07;;;;;;;13.43;3.70;;;;;;;;;;5056420;28;20017;-28
2023/08/08 01:25:32;;;;;;;14.65;3.88;;;;;;;;;;5056932;28;20028;-28
2023/08/08 01:27:58;;;;;;;10.88;3.80;;;;;;;;;;5056353;28;20021;-29
2023/08/08 01:30:23;;;;;;;14.53;4.00;;;;;;;;;;5056494;28;20036;-29
2023/08/08 01:32:48;;;;;;;13.00;3.87;;;;;;;;;;5056217;28;20345;-29
2023/08/08 01:35:13;;;;;;;15.83;4.00;;;;;;;;;;5056189;28;20247;-29
2023/08/08 01:37:41;;;;;;;12.27;3.42;;;;;;;;;;5056163;28;20252;-28
2023/08/08 01:40:09;;;;;;;14.63;3.83;;;;;;;;;;5056101;28;20025;-29
2023/08/08 01:42:34;;;;;;;13.75;3.55;;;;;;;;;;5056359;28;20066;-28
2023/08/08 01:44:59;;;;;;;11.45;3.78;;;;;;;;;;5056003;28;20485;-29
2023/08/08 01:47:25;;;;;;;11.20;3.58;;;;;;;;;;5055922;28;20033;-28
2023/08/08 01:49:50;;;;;;;13.02;3.58;;;;;;;;;;5055879;28;20025;-28
2023/08/08 01:52:15;;;;;;;15.20;3.78;;;;;;;;;;5055897;28;20027;-28
2023/08/08 01:54:42;;;;;;;13.48;3.42;;;;;;;;;;5056618;28;20021;-28
2023/08/08 01:57:07;;;;;;;13.20;3.70;;;;;;;;;;5056297;28;20017;-28
2023/08/08 01:59:32;;;;;;;11.32;3.30;;;;;;;;;;5055788;28;20100;-29
2023/08/08 02:01:58;;;;;;;12.82;3.60;;;;;;;;;;5055703;28;20071;-29
2023/08/08 02:04:23;;;;;;;10.77;3.20;;;;;;;;;;5055704;28;20025;-29
2023/08/08 02:06:48;;;;;;;13.57;3.60;;;;;;;;;;5055313;28;20447;-29
2023/08/08 02:09:15;;;;;;;24.43;3.50;;;;;;;;;;5055583;28;20363;-29
2023/08/08 02:11:40;;;;;;;9.13;3.03;;;;;;;;;;5055220;28;20692;-29
2023/08/08 02:14:05;;;;;;;8.00;3.75;;;;;;;;;;5056057;28;20041;-29
2023/08/08 02:16:31;;;;;;;9.88;3.22;;;;;;;;;;5055751;28;20367;-29
2023/08/08 02:18:56;;;;;;;8.43;2.95;;;;;;;;;;5055988;28;20017;-29
2023/08/08 02:21:21;;;;;;;5.80;3.00;;;;;;;;;;5055879;28;20356;-29
2023/08/08 02:23:46;;;;;;;11.55;3.40;;;;;;;;;;5055627;28;20043;-29
2023/08/08 02:26:12;;;;;;;10.73;3.13;;;;;;;;;;5055235;28;20017;-29
2023/08/08 02:28:37;;;;;;;10.60;2.97;;;;;;;;;;5055115;28;20305;-29
2023/08/08 02:31:02;;;;;;;10.43;3.20;;;;;;;;;;5054624;28;20033;-29
2023/08/08 02:33:27;;;;;;;10.40;3.63;;;;;;;;;;5055136;28;20049;-29
2023/08/08 02:35:52;;;;;;;14.10;3.40;;;;;;;;;;5055102;28;20017;-29
2023/08/08 02:38:17;;;;;;;10.50;3.50;;;;;;;;;;5055047;28;20305;-29
2023/08/08 02:40:43;;;;;;;12.30;3.57;;;;;;;;;;5054918;28;20274;-28
2023/08/08 02:43:09;;;;;;;10.57;3.17;;;;;;;;;;5055465;28;20252;-29
2023/08/08 02:45:34;;;;;;;9.88;3.20;;;;;;;;;;5055168;28;20722;-29
2023/08/08 02:47:59;;;;;;;9.03;3.00;;;;;;;;;;5055364;28;20032;-29
2023/08/08 02:50:24;;;;;;;14.40;3.37;;;;;;;;;;5054964;28;20052;-29
2023/08/08 02:52:50;;;;;;;7.87;2.83;;;;;;;;;;5054722;28;20259;-29
2023/08/08 02:55:15;;;;;;;5.50;2.67;;;;;;;;;;5055247;28;20247;-29
2023/08/08 02:57:40;;;;;;;6.18;2.65;;;;;;;;;;5054464;28;20606;-29
2023/08/08 03:00:08;;;;;;;7.60;2.90;;;;;;;;;;5053274;28;20464;-28
2023/08/08 03:02:33;;;;;;;10.30;2.95;;;;;;;;;;5054798;28;20030;-29
2023/08/08 03:04:58;;;;;;;11.73;2.70;;;;;;;;;;5054772;28;20031;-29
2023/08/08 03:07:23;;;;;;;11.50;2.77;;;;;;;;;;5054471;28;20024;-29
2023/08/08 03:09:48;;;;;;;7.17;3.03;;;;;;;;;;5054226;28;20287;-29
2023/08/08 03:12:14;;;;;;;9.13;2.90;;;;;;;;;;5054644;28;20795;-29
2023/08/08 03:14:39;;;;;;;5.40;2.30;;;;;;;;;;5054334;28;20256;-29
2023/08/08 03:17:04;;;;;;;12.23;2.80;;;;;;;;;;5054284;28;20259;-29
2023/08/08 03:19:29;;;;;;;9.57;3.10;;;;;;;;;;5054701;28;20052;-29
2023/08/08 03:21:55;;;;;;;9.07;2.73;;;;;;;;;;5054168;28;20024;-28
2023/08/08 03:24:20;;;;;;;12.50;2.80;;;;;;;;;;5054689;28;20267;-29
2023/08/08 03:26:45;;;;;;;10.93;2.90;;;;;;;;;;5054653;28;20251;-29
2023/08/08 03:29:10;;;;;;;7.10;2.42;;;;;;;;;;5053978;28;20271;-28
2023/08/08 03:31:36;;;;;;;7.65;2.50;;;;;;;;;;5053962;28;20018;-28
2023/08/08 03:34:01;;;;;;;10.27;2.50;;;;;;;;;;5053939;28;20017;-28
2023/08/08 03:36:26;;;;;;;11.00;2.60;;;;;;;;;;5053983;28;20102;-29
2023/08/08 03:38:51;;;;;;;7.53;2.70;;;;;;;;;;5054396;28;20021;-28
2023/08/08 03:41:16;;;;;;;13.65;2.60;;;;;;;;;;5053889;28;20529;-29
2023/08/08 03:43:42;;;;;;;6.43;2.45;;;;;;;;;;5052873;28;20460;-29
2023/08/08 03:46:07;;;;;;;8.80;2.47;;;;;;;;;;5054354;28;20052;-29
2023/08/08 03:48:32;;;;;;;18.42;2.50;;;;;;;;;;5053789;28;20375;-28
2023/08/08 03:50:57;;;;;;;4.78;2.15;;;;;;;;;;5053638;28;20025;-29
2023/08/08 03:53:23;;;;;;;10.65;2.50;;;;;;;;;;5054232;28;20013;-29
2023/08/08 03:55:48;;;;;;;5.32;2.28;;;;;;;;;;5053661;28;20032;-29
2023/08/08 03:58:13;;;;;;;7.13;2.30;;;;;;;;;;5053817;28;20021;-29
2023/08/08 04:00:45;;;;;;;13.43;2.43;;;;;;;;;;5053650;28;20021;-28
2023/08/08 04:03:10;;;;;;;12.37;3.70;;;;;;;;;;5053866;28;20259;-29
2023/08/08 04:05:35;;;;;;;6.97;2.20;;;;;;;;;;5053858;28;20104;-29
2023/08/08 04:08:01;;;;;;;10.53;2.67;;;;;;;;;;5053441;28;20279;-27
2023/08/08 04:10:26;;;;;;;8.27;2.37;;;;;;;;;;5053226;28;20288;-29
2023/08/08 04:12:51;;;;;;;10.43;2.20;;;;;;;;;;5053335;28;20649;-28
2023/08/08 04:15:16;;;;;;;13.00;2.40;;;;;;;;;;5053936;28;20255;-29
2023/08/08 04:17:41;;;;;;;4.75;1.98;;;;;;;;;;5053384;28;20029;-29
2023/08/08 04:20:07;;;;;;;14.37;2.70;;;;;;;;;;5053880;28;20021;-29
2023/08/08 04:22:32;;;;;;;11.07;2.20;;;;;;;;;;5053312;28;20116;-28
2023/08/08 04:24:57;;;;;;;9.70;2.10;;;;;;;;;;5053869;28;20025;-29
2023/08/08 04:27:22;;;;;;;5.85;2.15;;;;;;;;;;5053504;28;20264;-29
2023/08/08 04:29:48;;;;;;;4.93;2.47;;;;;;;;;;5053135;28;20021;-29
2023/08/08 04:32:13;;;;;;;13.85;2.35;;;;;;;;;;5053475;28;20102;-28
2023/08/08 04:34:38;;;;;;;8.37;2.17;;;;;;;;;;5053797;28;20032;-28
2023/08/08 04:37:03;;;;;;;10.10;2.60;;;;;;;;;;5053175;28;20598;-29
2023/08/08 04:39:29;;;;;;;9.70;2.50;;;;;;;;;;5053390;28;20305;-29
2023/08/08 04:41:54;;;;;;;8.97;1.90;;;;;;;;;;5053062;28;20468;-39
2023/08/08 04:44:19;;;;;;;9.63;2.50;;;;;;;;;;5053125;28;20267;-29
2023/08/08 04:46:44;;;;;;;7.67;2.00;;;;;;;;;;5053083;28;20681;-29
2023/08/08 04:49:09;;;;;;;15.93;2.63;;;;;;;;;;5053518;28;20266;-28
2023/08/08 04:51:35;;;;;;;6.93;2.30;;;;;;;;;;5053089;28;20247;-28
2023/08/08 04:54:00;;;;;;;7.03;2.30;;;;;;;;;;5053618;28;20252;-29
2023/08/08 04:56:25;;;;;;;7.75;2.40;;;;;;;;;;5056999;28;20014;-28
2023/08/08 04:58:50;;;;;;;6.87;2.07;;;;;;;;;;5056871;28;20018;-28
2023/08/08 05:01:17;;;;;;;12.57;2.28;;;;;;;;;;5056863;28;20266;-29
2023/08/08 05:03:42;;;;;;;5.97;2.00;;;;;;;;;;5056779;28;20028;-29
2023/08/08 05:06:08;;;;;;;6.07;1.80;;;;;;;;;;5057326;28;20021;-28
2023/08/08 05:08:33;;;;;;;6.07;1.92;;;;;;;;;;5057200;28;20021;-28
2023/08/08 05:10:58;;;;;;;8.40;2.00;;;;;;;;;;5056615;28;20045;-28
2023/08/08 05:13:23;;;;;;;13.40;1.97;;;;;;;;;;5056615;28;20584;-29
2023/08/08 05:15:48;;;;;;;8.43;1.93;;;;;;;;;;5056654;28;20052;-29
2023/08/08 05:18:14;;;;;;;8.23;2.00;;;;;;;;;;5056577;28;20013;-29
2023/08/08 05:20:39;;;;;;;15.35;2.00;;;;;;;;;;5056812;28;20027;-29
2023/08/08 05:23:04;;;;;;;4.20;1.63;;;;;;;;;;5056998;28;20032;-29
2023/08/08 05:25:29;;;;;;;6.27;1.60;;;;;;;;;;5056372;28;20021;-29
2023/08/08 05:27:55;;;;;;;9.85;2.20;;;;;;;;;;5056167;28;20274;-29
2023/08/08 05:30:21;;;;;;;10.98;2.13;;;;;;;;;;5055999;28;20418;-29
2023/08/08 05:32:46;;;;;;;6.82;1.60;;;;;;;;;;5056153;28;20028;-28
2023/08/08 05:35:12;;;;;;;5.27;1.87;;;;;;;;;;5056109;28;20021;-28
2023/08/08 05:37:38;;;;;;;9.00;1.73;;;;;;;;;;5056379;28;20327;-29
2023/08/08 05:40:05;;;;;;;5.30;1.73;;;;;;;;;;5056472;28;20028;-29
2023/08/08 05:42:31;;;;;;;5.60;1.40;;;;;;;;;;5055841;28;20013;-29
2023/08/08 05:44:57;;;;;;;6.75;1.70;;;;;;;;;;5055909;28;20070;-29
2023/08/08 05:47:22;;;;;;;10.25;1.98;;;;;;;;;;5054839;28;20052;-28
2023/08/08 05:49:48;;;;;;;13.63;1.80;;;;;;;;;;5055684;28;20021;-28
2023/08/08 05:52:13;;;;;;;7.32;2.00;;;;;;;;;;5054563;28;20032;-28
2023/08/08 05:54:39;;;;;;;13.23;1.58;;;;;;;;;;5054463;28;20501;-28
2023/08/08 05:57:04;;;;;;;14.80;2.17;;;;;;;;;;5055592;28;20024;-28
2023/08/08 05:59:29;;;;;;;4.82;1.70;;;;;;;;;;5056131;28;20032;-28
2023/08/08 06:01:54;;;;;;;12.13;1.80;;;;;;;;;;5055585;28;20016;-29
2023/08/08 06:04:19;;;;;;;8.80;1.83;;;;;;;;;;5055970;28;20263;-28
2023/08/08 06:06:46;;;;;;;3.88;1.48;;;;;;;;;;5053170;28;20785;-28
2023/08/08 06:09:12;;;;;;;3.40;1.30;;;;;;;;;;5055677;28;20021;-29
2023/08/08 06:11:37;;;;;;;5.77;1.60;;;;;;;;;;5055363;28;20474;-28
2023/08/08 06:14:02;;;;;;;7.60;1.87;;;;;;;;;;5056016;28;20017;-28
2023/08/08 06:16:27;;;;;;;9.00;1.50;;;;;;;;;;5055419;28;20460;-29
2023/08/08 06:18:53;;;;;;;3.37;1.33;;;;;;;;;;5055962;28;20021;-28
2023/08/08 06:21:18;;;;;;;4.22;1.40;;;;;;;;;;5055618;28;20434;-29
2023/08/08 06:23:43;;;;;;;7.90;1.63;;;;;;;;;;5055302;28;20486;-29
2023/08/08 06:26:09;;;;;;;6.37;1.53;;;;;;;;;;5055227;28;20039;-29
2023/08/08 06:28:34;;;;;;;6.38;1.60;;;;;;;;;;5055141;28;20074;-29
2023/08/08 06:30:59;;;;;;;8.30;1.63;;;;;;;;;;5055332;28;20096;-29
2023/08/08 06:33:24;;;;;;;7.40;1.47;;;;;;;;;;5055400;28;20255;-29
2023/08/08 06:35:50;;;;;;;8.87;1.50;;;;;;;;;;5055310;28;20737;-29
2023/08/08 06:38:15;;;;;;;6.03;1.60;;;;;;;;;;5054647;28;20282;-29
2023/08/08 06:40:40;;;;;;;6.60;1.40;;;;;;;;;;5054387;28;20067;-29
2023/08/08 06:43:05;;;;;;;8.33;1.70;;;;;;;;;;5054250;28;20094;-29
2023/08/08 06:45:31;;;;;;;6.73;1.50;;;;;;;;;;5054329;28;20025;-29
2023/08/08 06:47:57;;;;;;;6.13;1.70;;;;;;;;;;5054252;28;20075;-29
2023/08/08 06:50:24;;;;;;;8.50;1.80;;;;;;;;;;5054132;28;20031;-29
2023/08/08 06:52:49;;;;;;;6.88;1.55;;;;;;;;;;5054256;28;20082;-29
2023/08/08 06:55:14;;;;;;;4.70;1.40;;;;;;;;;;5055354;28;20025;-30
2023/08/08 06:57:40;;;;;;;7.37;1.63;;;;;;;;;;5054653;28;20017;-29
2023/08/08 07:00:06;;;;;;;7.80;1.50;;;;;;;;;;5054504;28;20025;-29
2023/08/08 07:02:31;;;;;;;6.43;1.60;;;;;;;;;;5054409;28;20017;-28
2023/08/08 07:04:56;;;;;;;5.07;1.37;;;;;;;;;;5054517;28;20021;-28
2023/08/08 07:07:21;;;;;;;5.17;1.43;;;;;;;;;;5055031;28;20025;-28
2023/08/08 07:09:47;;;;;;;6.67;1.53;;;;;;;;;;5054128;28;20044;-28
2023/08/08 07:12:12;;;;;;;4.72;1.40;;;;;;;;;;5054228;28;20259;-28
2023/08/08 07:14:38;;;;;;;6.23;1.33;;;;;;;;;;5054253;28;20028;-29
2023/08/08 07:17:03;;;;;;;5.27;1.33;;;;;;;;;;5054414;28;20016;-28
2023/08/08 07:19:29;;;;;;;5.53;1.30;;;;;;;;;;5054187;28;20430;-29
2023/08/08 07:21:54;;;;;;;6.32;1.40;;;;;;;;;;5054578;28;20498;-28
2023/08/08 07:24:20;;;;;;;7.13;1.43;;;;;;;;;;5051953;28;20383;-28
2023/08/08 07:26:45;;;;;;;6.25;1.40;;;;;;;;;;5052000;28;20635;-28
2023/08/08 07:29:10;;;;;;;5.97;1.33;;;;;;;;;;5051808;28;20024;-28
2023/08/08 07:31:35;;;;;;;3.37;1.00;;;;;;;;;;5051793;28;20346;-28
2023/08/08 07:34:00;;;;;;;6.73;1.30;;;;;;;;;;5051789;28;20021;-29
2023/08/08 07:36:26;;;;;;;6.90;1.30;;;;;;;;;;5050399;28;20597;-28
2023/08/08 07:38:51;;;;;;;6.53;1.30;;;;;;;;;;5052815;28;20009;-28
2023/08/08 07:41:17;;;;;;;6.50;1.13;;;;;;;;;;5053797;28;20301;-28
2023/08/08 07:43:43;;;;;;;4.47;1.30;;;;;;;;;;5053911;28;20257;-28
2023/08/08 07:46:08;;;;;;;6.53;1.50;;;;;;;;;;5053718;28;20075;-27
2023/08/08 07:48:33;;;;;;;3.05;1.13;;;;;;;;;;5053507;28;20606;-29
2023/08/08 07:50:58;;;;;;;7.17;1.30;;;;;;;;;;5053571;28;20056;-29
2023/08/08 07:53:24;;;;;;;7.23;1.07;;;;;;;;;;5054265;28;20290;-29
2023/08/08 07:55:50;;;;;;;5.15;1.00;;;;;;;;;;5052388;28;20032;-28
2023/08/08 07:58:15;;;;;;;7.15;1.20;;;;;;;;;;5052383;28;20406;-29
2023/08/08 08:00:41;;;;;;;5.80;1.30;;;;;;;;;;5053547;28;20032;-29
2023/08/08 08:03:06;;;;;;;9.18;1.55;;;;;;;;;;5053470;28;20450;-28
2023/08/08 08:05:32;;;;;;;7.40;1.30;;;;;;;;;;5051716;28;20067;-29
2023/08/08 08:07:57;;;;;;;4.65;1.35;;;;;;;;;;5053480;28;20459;-28
2023/08/08 08:10:22;;;;;;;3.13;1.13;;;;;;;;;;5053045;28;20045;-27
2023/08/08 08:12:47;;;;;;;3.47;0.90;;;;;;;;;;5053902;28;20283;-27
2023/08/08 08:15:13;;;;;;;5.03;1.20;;;;;;;;;;5053858;28;20017;-27
2023/08/08 08:17:38;;;;;;;5.63;1.27;;;;;;;;;;5053874;28;20368;-27
2023/08/08 08:20:05;;;;;;;4.20;1.38;;;;;;;;;;5053194;28;20028;-27
2023/08/08 08:22:31;;;;;;;5.90;1.15;;;;;;;;;;5053472;28;20467;-27
2023/08/08 08:24:56;;;;;;;8.25;1.55;;;;;;;;;;5053260;28;20155;-27
2023/08/08 08:27:21;;;;;;;5.03;1.17;;;;;;;;;;5052633;28;20021;-27
2023/08/08 08:29:47;;;;;;;6.70;1.30;;;;;;;;;;5054069;28;20287;-27
2023/08/08 08:32:12;;;;;;;4.67;1.00;;;;;;;;;;5057345;28;20015;-27
2023/08/08 08:34:37;;;;;;;3.47;0.87;;;;;;;;;;5056081;28;20013;-27
2023/08/08 08:37:02;;;;;;;2.37;1.00;;;;;;;;;;5057481;28;20106;-27
2023/08/08 08:39:27;;;;;;;5.88;1.25;;;;;;;;;;5057506;28;20028;-27
2023/08/08 08:41:58;;;;;;;2.00;0.90;;;;;;;;;;5057474;28;20020;-27
2023/08/08 08:44:24;;;;;;;6.82;1.10;;;;;;;;;;5057146;28;20256;-27
2023/08/08 08:46:50;;;;;;;2.25;0.73;;;;;;;;;;5057656;28;20017;-27
2023/08/08 08:49:17;;;;;;;4.35;1.20;;;;;;;;;;5056928;28;20521;-27
2023/08/08 08:51:42;;;;;;;6.50;1.10;;;;;;;;;;5056975;28;20016;-27
2023/08/08 08:54:07;;;;;;;3.47;0.93;;;;;;;;;;5057113;28;20021;-27
2023/08/08 08:56:33;;;;;;;4.95;0.90;;;;;;;;;;5057425;28;20055;-27
2023/08/08 08:58:59;;;;;;;2.45;0.90;;;;;;;;;;5056867;28;20059;-27
2023/08/08 09:01:24;;;;;;;7.28;0.82;;;;;;;;;;5056769;28;20021;-27
2023/08/08 09:03:49;;;;;;;4.50;0.90;;;;;;;;;;5056641;28;20025;-27
2023/08/08 09:06:16;;;;;;;6.63;1.37;;;;;;;;;;5056735;28;20024;-27
2023/08/08 09:08:41;;;;;;;5.32;1.13;;;;;;;;;;5056645;28;20028;-27
2023/08/08 09:11:06;;;;;;;3.85;1.00;;;;;;;;;;5056346;28;20037;-27
2023/08/08 09:13:40;;;;;;;8.17;1.27;;;;;;;;;;5056598;28;20056;-27
2023/08/08 09:16:06;;;;;;;5.88;1.10;;;;;;;;;;5057088;28;20029;-27
2023/08/08 09:18:32;;;;;;;4.32;0.98;;;;;;;;;;5056573;28;20458;-26
2023/08/08 09:20:57;;;;;;;4.05;1.00;;;;;;;;;;5056704;28;20032;-26
2023/08/08 09:23:23;;;;;;;6.18;1.10;;;;;;;;;;5056366;28;20529;-26
2023/08/08 09:25:48;;;;;;;5.60;1.43;;;;;;;;;;5055113;28;20021;-26
2023/08/08 09:28:13;;;;;;;5.05;1.02;;;;;;;;;;5056218;28;20255;-26
2023/08/08 09:30:39;;;;;;;5.25;0.80;;;;;;;;;;5056339;28;20024;-27
2023/08/08 09:33:06;;;;;;;5.45;1.42;;;;;;;;;;5056154;28;20070;-27
2023/08/08 09:35:31;;;;;;;2.75;0.85;;;;;;;;;;5056030;28;20024;-27
2023/08/08 09:37:56;;;;;;;2.85;0.90;;;;;;;;;;5056163;28;20025;-26
2023/08/08 09:40:22;;;;;;;2.17;0.93;;;;;;;;;;5056027;28;20392;-27
2023/08/08 09:42:48;;;;;;;3.60;0.98;;;;;;;;;;5056396;28;20481;-27
2023/08/08 09:45:14;;;;;;;4.05;0.90;;;;;;;;;;5056258;28;20468;-27
2023/08/08 09:47:39;;;;;;;3.63;0.98;;;;;;;;;;5056057;28;20032;-27
2023/08/08 09:50:05;;;;;;;4.32;1.00;;;;;;;;;;5054614;28;20040;-27
2023/08/08 09:52:30;;;;;;;3.38;0.80;;;;;;;;;;5056037;28;20112;-26
2023/08/08 09:54:55;;;;;;;2.55;0.98;;;;;;;;;;5056337;28;20017;-26
2023/08/08 09:57:24;;;;;;;7.38;1.40;;;;;;;;;;5055771;28;20021;-26
2023/08/08 09:59:51;;;;;;;2.92;1.02;;;;;;;;;;5055954;28;20093;-28
2023/08/08 10:02:16;;;;;;;4.13;1.10;;;;;;;;;;5055942;28;20028;-31
2023/08/08 10:04:42;;;;;;;4.68;1.30;;;;;;;;;;5055860;28;20024;-27
2023/08/08 10:07:08;;;;;;;20.83;2.95;;;;;;;;;;5055508;28;20036;-27
2023/08/08 10:09:33;;;;;;;9.10;1.20;;;;;;;;;;5055757;28;20051;-27
2023/08/08 10:11:59;;;;;;;4.85;1.00;;;;;;;;;;5055802;28;20159;-27
2023/08/08 10:14:28;;;;;;;3.45;1.08;;;;;;;;;;5055469;28;20017;-27
2023/08/08 10:16:55;;;;;;;3.55;0.90;;;;;;;;;;5055352;28;20013;-28
2023/08/08 10:19:21;;;;;;;3.88;0.82;;;;;;;;;;5055353;28;20044;-27
2023/08/08 10:21:47;;;;;;;5.70;0.95;;;;;;;;;;5055746;28;20013;-27
2023/08/08 10:24:12;;;;;;;6.00;1.23;;;;;;;;;;5055197;28;20422;-27
2023/08/08 10:26:53;;;;;;;2.73;0.77;;;;;;;;;;5055787;28;20100;-27
2023/08/08 10:29:19;;;;;;;4.28;0.77;;;;;;;;;;5056103;28;20323;-27
2023/08/08 10:31:51;;;;;;;4.80;0.80;;;;;;;;;;5055016;28;20048;-27
2023/08/08 10:34:19;;;;;;;5.10;1.00;;;;;;;;;;5055074;28;20017;-27
2023/08/08 10:36:48;;;;;;;4.25;1.00;;;;;;;;;;5055292;28;20021;-27
2023/08/08 10:39:17;;;;;;;3.97;1.02;;;;;;;;;;5054911;28;20028;-27
2023/08/08 10:41:50;;;;;;;3.47;0.93;;;;;;;;;;5055342;28;20443;-27
2023/08/08 10:44:23;;;;;;;4.82;1.20;;;;;;;;;;5054901;28;20048;-28
2023/08/08 10:46:48;;;;;;;1.83;0.90;;;;;;;;;;5055078;28;20333;-28
2023/08/08 10:49:14;;;;;;;6.15;1.05;;;;;;;;;;5055202;28;20021;-28
2023/08/08 10:51:45;;;;;;;5.38;1.10;;;;;;;;;;5054327;28;20013;-27
2023/08/08 10:54:27;;;;;;;6.18;0.98;;;;;;;;;;5054542;28;20113;-27
2023/08/08 10:56:55;;;;;;;20.52;1.50;;;;;;;;;;5054908;28;20015;-28
2023/08/08 10:59:25;;;;;;;4.40;1.95;;;;;;;;;;5054592;28;20474;-28
2023/08/08 11:01:52;;;;;;;4.30;1.10;;;;;;;;;;5054571;28;20013;-26
2023/08/08 11:04:21;;;;;;;2.78;0.90;;;;;;;;;;5054697;28;20021;-27
2023/08/08 11:06:47;;;;;;;4.15;1.15;;;;;;;;;;5054332;28;20054;-27
2023/08/08 11:09:13;;;;;;;4.68;1.20;;;;;;;;;;5053934;28;20024;-27
2023/08/08 11:11:39;;;;;;;2.90;0.90;;;;;;;;;;5054244;28;20041;-27
2023/08/08 11:14:15;;;;;;;3.75;1.00;;;;;;;;;;5054376;28;20491;-27
2023/08/08 11:16:41;;;;;;;4.35;1.10;;;;;;;;;;5053114;28;20025;-27
2023/08/08 11:19:06;;;;;;;5.80;1.02;;;;;;;;;;5054819;28;20024;-27
2023/08/08 11:21:36;;;;;;;3.80;1.10;;;;;;;;;;5054452;28;20024;-27
2023/08/08 11:24:02;;;;;;;2.80;1.10;;;;;;;;;;5054431;28;20467;-27
2023/08/08 11:26:27;;;;;;;2.55;0.90;;;;;;;;;;5054080;28;20028;-27
2023/08/08 11:28:52;;;;;;;3.92;0.75;;;;;;;;;;5054375;28;20371;-27
2023/08/08 11:31:19;;;;;;;3.72;1.02;;;;;;;;;;5053861;28;20053;-27
2023/08/08 11:33:46;;;;;;;5.95;1.20;;;;;;;;;;5054560;28;20024;-26
2023/08/08 11:36:13;;;;;;;2.78;1.00;;;;;;;;;;5054236;28;20066;-27
2023/08/08 11:38:39;;;;;;;10.30;1.25;;;;;;;;;;5053889;28;20045;-27
2023/08/08 11:41:05;;;;;;;16.00;1.50;;;;;;;;;;5054117;28;20020;-27
2023/08/08 11:43:30;;;;;;;4.27;0.87;;;;;;;;;;5053806;28;20028;-27
2023/08/08 11:45:55;;;;;;;6.78;0.98;;;;;;;;;;5053691;28;20262;-27
2023/08/08 11:48:21;;;;;;;6.23;0.90;;;;;;;;;;5053961;28;20039;-27
2023/08/08 11:50:46;;;;;;;8.07;1.40;;;;;;;;;;5053873;28;20052;-27
2023/08/08 11:53:12;;;;;;;1.90;0.80;;;;;;;;;;5053623;28;20024;-27
2023/08/08 11:55:37;;;;;;;5.28;1.33;;;;;;;;;;5053577;28;20048;-27
2023/08/08 11:58:02;;;;;;;5.13;1.42;;;;;;;;;;5054133;28;20013;-27
2023/08/08 12:00:29;;;;;;;5.40;1.10;;;;;;;;;;5053891;28;20094;-27
2023/08/08 12:02:55;;;;;;;3.00;1.00;;;;;;;;;;5053470;28;20361;-27
2023/08/08 12:05:22;;;;;;;4.60;1.00;;;;;;;;;;5051371;28;20035;-28
2023/08/08 12:07:48;;;;;;;3.47;0.90;;;;;;;;;;5035941;28;20047;-27
2023/08/08 12:10:16;;;;;;;4.38;1.08;;;;;;;;;;5053100;28;20076;-27
2023/08/08 12:12:42;;;;;;;2.40;1.00;;;;;;;;;;5052215;28;20064;-26
2023/08/08 12:15:11;;;;;;;4.15;1.00;;;;;;;;;;5052175;28;20028;-27
2023/08/08 12:17:36;;;;;;;2.90;1.08;;;;;;;;;;5053223;28;20096;-26
2023/08/08 12:20:09;;;;;;;3.15;1.15;;;;;;;;;;5053552;28;20029;-26
2023/08/08 12:22:35;;;;;;;2.85;0.80;;;;;;;;;;5053269;28;20048;-26
2023/08/08 12:25:00;;;;;;;4.22;1.00;;;;;;;;;;5053170;28;20491;-26
2023/08/08 12:27:25;;;;;;;3.27;0.90;;;;;;;;;;5053287;28;20017;-26
2023/08/08 12:29:51;;;;;;;2.28;0.82;;;;;;;;;;5051808;28;20024;-27
2023/08/08 12:32:18;;;;;;;6.72;1.10;;;;;;;;;;5053644;28;20021;-27
2023/08/08 12:34:43;;;;;;;6.68;1.25;;;;;;;;;;5053692;28;20147;-27
2023/08/08 12:37:08;;;;;;;4.67;0.83;;;;;;;;;;5053698;28;20052;-27
2023/08/08 12:39:33;;;;;;;7.95;1.17;;;;;;;;;;5053089;28;20028;-27
2023/08/08 12:41:58;;;;;;;2.50;0.93;;;;;;;;;;5053142;28;20021;-26
2023/08/08 12:44:24;;;;;;;4.90;0.97;;;;;;;;;;5052984;28;20258;-27
2023/08/08 12:46:49;;;;;;;7.05;1.20;;;;;;;;;;5053155;28;20346;-27
2023/08/08 12:49:14;;;;;;;5.83;0.93;;;;;;;;;;5053064;28;20017;-26
2023/08/08 12:51:39;;;;;;;3.23;0.87;;;;;;;;;;5052964;28;20021;-26
2023/08/08 12:54:05;;;;;;;6.77;1.20;;;;;;;;;;5053489;28;20423;-27
2023/08/08 12:56:30;;;;;;;2.90;0.80;;;;;;;;;;5053251;28;20013;-26
2023/08/08 12:58:55;;;;;;;4.33;0.83;;;;;;;;;;5052889;28;20444;-26
2023/08/08 13:01:21;;;;;;;94.50;5.53;;;;;;;;;;5052871;28;20275;-26
2023/08/08 13:03:46;;;;;;;5.67;1.10;;;;;;;;;;5053178;28;20021;-27
2023/08/08 13:06:13;;;;;;;3.93;0.90;;;;;;;;;;5052828;28;20251;-26
2023/08/08 13:08:38;;;;;;;4.13;1.25;;;;;;;;;;5053112;28;20252;-26
2023/08/08 13:11:03;;;;;;;3.10;1.00;;;;;;;;;;5052608;28;20175;-26
2023/08/08 13:13:28;;;;;;;4.13;1.20;;;;;;;;;;5051941;28;20446;-27
2023/08/08 13:15:54;;;;;;;4.03;1.07;;;;;;;;;;5054146;28;20021;-27
2023/08/08 13:18:19;;;;;;;3.40;0.97;;;;;;;;;;5053646;28;20052;-26
2023/08/08 13:20:44;;;;;;;3.90;0.90;;;;;;;;;;5054332;28;20282;-26
2023/08/08 13:23:09;;;;;;;5.90;0.90;;;;;;;;;;5054618;28;20017;-26
2023/08/08 13:25:35;;;;;;;4.28;1.23;;;;;;;;;;5054645;28;20067;-27
2023/08/08 13:28:01;;;;;;;5.32;1.02;;;;;;;;;;5054652;28;20097;-26
2023/08/08 13:30:26;;;;;;;5.80;1.10;;;;;;;;;;5054482;28;20104;-26
2023/08/08 13:32:52;;;;;;;3.25;0.90;;;;;;;;;;5055031;28;20044;-26
2023/08/08 13:35:17;;;;;;;2.60;0.87;;;;;;;;;;5056781;28;20378;-26
2023/08/08 13:37:42;;;;;;;4.43;0.90;;;;;;;;;;5056248;28;20706;-27
2023/08/08 13:40:07;;;;;;;2.40;1.07;;;;;;;;;;5056426;28;20017;-26
2023/08/08 13:42:33;;;;;;;6.53;1.20;;;;;;;;;;5056344;28;20020;-26
2023/08/08 13:44:58;;;;;;;10.55;1.45;;;;;;;;;;5056082;28;20510;-26
2023/08/08 13:47:24;;;;;;;3.10;1.20;;;;;;;;;;5056218;28;20021;-26
2023/08/08 13:49:49;;;;;;;4.03;1.10;;;;;;;;;;5055822;28;20017;-26
2023/08/08 13:52:14;;;;;;;6.03;1.50;;;;;;;;;;5055890;28;20327;-26
2023/08/08 13:54:39;;;;;;;5.03;1.20;;;;;;;;;;5056418;28;20009;-26
2023/08/08 13:57:04;;;;;;;1.80;0.90;;;;;;;;;;5056355;28;20021;-26
2023/08/08 13:59:30;;;;;;;6.00;1.35;;;;;;;;;;5056255;28;20032;-26
2023/08/08 14:01:55;;;;;;;6.20;1.30;;;;;;;;;;5055658;28;20059;-26
2023/08/08 14:04:20;;;;;;;3.65;1.02;;;;;;;;;;5055583;28;20017;-26
2023/08/08 14:06:45;;;;;;;4.80;1.10;;;;;;;;;;5056212;28;20368;-27
2023/08/08 14:09:11;;;;;;;5.90;1.40;;;;;;;;;;5055666;28;20025;-26
2023/08/08 14:11:36;;;;;;;4.72;1.15;;;;;;;;;;5055371;28;20375;-26
2023/08/08 14:14:01;;;;;;;6.75;1.67;;;;;;;;;;5054201;28;20017;-26
2023/08/08 14:16:27;;;;;;;6.93;1.38;;;;;;;;;;5053301;28;20021;-26
2023/08/08 14:18:52;;;;;;;5.27;1.10;;;;;;;;;;5053299;28;20070;-26
2023/08/08 14:21:17;;;;;;;5.63;1.30;;;;;;;;;;5053610;28;20267;-26
2023/08/08 14:23:44;;;;;;;9.45;1.45;;;;;;;;;;5053579;28;20267;-26
2023/08/08 14:26:09;;;;;;;3.42;1.23;;;;;;;;;;5053774;28;20079;-26
2023/08/08 14:28:34;;;;;;;5.53;1.60;;;;;;;;;;5053170;28;20456;-27